Time;durP1;ratioP1;P1;durP2;ratioP2;P2;SDS_P1;SDS_P2;PMS_P1;PMS_P2;Temp;Humidity;BMP_temperature;BMP_pressure;BME280_temperature;BME280_humidity;BME280_pressure;Samples;Min_cycle;Max_cycle;Signal;HPM_P1;HPM_P2
2021/06/05 00:00:15;;;;;;;4.20;1.50;;;18.70;99.90;;;;;;1946904;73;21646;-78
2021/06/05 00:02:42;;;;;;;3.27;1.30;;;18.70;99.90;;;;;;1944716;74;21453;-79
2021/06/05 00:05:08;;;;;;;1.42;0.95;;;18.60;99.90;;;;;;1944856;74;21484;-79
2021/06/05 00:07:34;;;;;;;2.77;0.90;;;18.80;99.90;;;;;;1944905;74;21025;-79
2021/06/05 00:10:00;;;;;;;2.40;0.88;;;18.80;99.90;;;;;;1944699;74;21057;-79
2021/06/05 00:12:26;;;;;;;2.12;0.82;;;18.80;99.90;;;;;;1944764;74;21139;-79
2021/06/05 00:14:52;;;;;;;0.95;0.80;;;18.90;99.90;;;;;;1944905;74;21053;-79
2021/06/05 00:17:18;;;;;;;2.25;0.80;;;18.90;99.90;;;;;;1945002;74;21104;-79
2021/06/05 00:19:45;;;;;;;1.85;0.90;;;18.80;99.90;;;;;;1945021;74;21054;-79
2021/06/05 00:22:11;;;;;;;0.68;0.68;;;18.60;99.90;;;;;;1944705;74;21135;-79
2021/06/05 00:24:39;;;;;;;1.57;0.75;;;18.50;99.90;;;;;;1944908;74;21061;-78
2021/06/05 00:27:05;;;;;;;2.85;0.70;;;18.40;99.90;;;;;;1944691;73;21090;-79
2021/06/05 00:29:31;;;;;;;1.00;0.80;;;18.30;99.90;;;;;;1944789;74;21132;-78
2021/06/05 00:31:57;;;;;;;0.50;0.50;;;18.20;99.90;;;;;;1944625;74;21127;-79
2021/06/05 00:34:23;;;;;;;1.05;0.85;;;18.10;99.90;;;;;;1944899;74;21131;-79
2021/06/05 00:36:49;;;;;;;1.00;0.60;;;18.10;99.90;;;;;;1944895;74;21116;-79
2021/06/05 00:39:15;;;;;;;0.80;0.80;;;18.10;99.90;;;;;;1944918;74;21101;-79
2021/06/05 00:41:41;;;;;;;5.67;0.70;;;17.90;99.90;;;;;;1944868;74;21054;-79
2021/06/05 00:44:07;;;;;;;0.78;0.75;;;17.80;99.90;;;;;;1944874;74;21065;-79
2021/06/05 00:46:34;;;;;;;1.05;0.68;;;17.80;99.90;;;;;;1944961;74;21022;-79
2021/06/05 00:49:00;;;;;;;4.05;0.72;;;17.80;99.90;;;;;;1945932;74;21096;-78
2021/06/05 00:51:26;;;;;;;1.57;0.53;;;17.70;99.90;;;;;;1948640;71;21113;-79
2021/06/05 00:53:52;;;;;;;2.62;0.80;;;17.70;99.90;;;;;;1946259;71;21033;-78
2021/06/05 00:56:18;;;;;;;3.30;0.60;;;17.60;99.90;;;;;;1944898;74;21030;-78
2021/06/05 00:58:44;;;;;;;0.80;0.60;;;17.60;99.90;;;;;;1945028;74;21453;-78
2021/06/05 01:01:10;;;;;;;4.83;0.70;;;17.60;99.90;;;;;;1944801;74;21489;-78
2021/06/05 01:03:36;;;;;;;7.22;0.95;;;17.60;99.90;;;;;;1944823;74;21531;-78
2021/06/05 01:06:03;;;;;;;1.65;1.07;;;17.50;99.90;;;;;;1944995;74;21058;-78
2021/06/05 01:08:29;;;;;;;1.20;0.50;;;17.60;99.90;;;;;;1944787;74;21108;-77
2021/06/05 01:10:55;;;;;;;0.88;0.65;;;17.50;99.90;;;;;;1945029;74;21170;-78
2021/06/05 01:13:21;;;;;;;0.60;0.50;;;17.30;99.90;;;;;;1944954;74;21033;-78
2021/06/05 01:15:48;;;;;;;2.17;0.70;;;17.20;99.90;;;;;;1944979;73;21131;-78
2021/06/05 01:18:14;;;;;;;0.70;0.60;;;17.10;99.90;;;;;;1944903;74;21494;-79
2021/06/05 01:20:40;;;;;;;0.57;0.57;;;17.10;99.90;;;;;;1944798;74;21478;-78
2021/06/05 01:23:06;;;;;;;0.60;0.55;;;17.10;99.90;;;;;;1944968;74;21528;-78
2021/06/05 01:25:32;;;;;;;2.25;0.60;;;17.00;99.90;;;;;;1945212;74;21508;-77
2021/06/05 01:27:58;;;;;;;0.82;0.70;;;17.00;99.90;;;;;;1944815;74;21481;-77
2021/06/05 01:30:24;;;;;;;0.78;0.68;;;16.80;99.90;;;;;;1945018;74;21062;-78
2021/06/05 01:32:51;;;;;;;6.67;0.65;;;16.80;99.90;;;;;;1944957;74;21070;-78
2021/06/05 01:35:17;;;;;;;0.70;0.50;;;16.90;99.90;;;;;;1944787;74;21053;-78
2021/06/05 01:37:43;;;;;;;1.02;0.50;;;16.80;99.90;;;;;;1944992;74;21135;-78
2021/06/05 01:40:09;;;;;;;1.70;0.55;;;16.90;99.90;;;;;;1944790;74;21139;-78
2021/06/05 01:42:35;;;;;;;0.50;0.50;;;16.90;99.90;;;;;;1944921;74;21622;-79
2021/06/05 01:45:01;;;;;;;0.62;0.57;;;16.90;99.90;;;;;;1944783;74;21434;-77
2021/06/05 01:47:27;;;;;;;1.70;0.75;;;16.90;99.90;;;;;;1944794;74;21446;-77
2021/06/05 01:49:53;;;;;;;1.30;0.90;;;16.90;99.90;;;;;;1944997;74;21547;-77
2021/06/05 01:52:22;;;;;;;3.05;0.80;;;16.80;99.90;;;;;;1945178;74;21471;-78
2021/06/05 01:54:49;;;;;;;1.30;0.65;;;16.90;99.90;;;;;;1945097;74;21125;-78
2021/06/05 01:57:15;;;;;;;1.95;0.60;;;17.00;99.90;;;;;;1944817;74;21054;-78
2021/06/05 01:59:41;;;;;;;1.52;0.80;;;16.90;99.90;;;;;;1944999;74;21073;-78
2021/06/05 02:02:07;;;;;;;1.42;0.72;;;17.00;99.90;;;;;;1944805;74;21026;-78
2021/06/05 02:04:33;;;;;;;0.68;0.68;;;17.00;99.90;;;;;;1945022;74;21070;-78
2021/06/05 02:06:59;;;;;;;1.52;0.70;;;17.00;99.90;;;;;;1948722;73;21143;-78
2021/06/05 02:09:25;;;;;;;1.75;0.78;;;17.00;99.90;;;;;;1945610;73;21112;-78
2021/06/05 02:11:51;;;;;;;1.92;0.68;;;16.90;99.90;;;;;;1948073;73;21103;-79
2021/06/05 02:14:18;;;;;;;1.57;0.90;;;17.00;99.90;;;;;;1944849;74;21030;-78
2021/06/05 02:16:44;;;;;;;0.65;0.57;;;17.00;99.90;;;;;;1944864;74;21127;-79
2021/06/05 02:19:10;;;;;;;1.75;0.88;;;17.00;99.90;;;;;;1944999;74;21069;-79
2021/06/05 02:21:36;;;;;;;2.35;0.70;;;17.00;99.90;;;;;;1944781;74;21108;-78
2021/06/05 02:24:02;;;;;;;0.68;0.50;;;17.00;99.90;;;;;;1946152;73;21019;-79
2021/06/05 02:26:28;;;;;;;0.40;0.40;;;17.00;99.90;;;;;;1945089;74;21058;-79
2021/06/05 02:28:54;;;;;;;0.62;0.60;;;17.00;99.90;;;;;;1945088;74;21139;-78
2021/06/05 02:31:20;;;;;;;1.85;0.68;;;16.90;99.90;;;;;;1945043;74;21152;-78
2021/06/05 02:33:47;;;;;;;0.40;0.40;;;16.90;99.90;;;;;;1945069;74;21070;-78
2021/06/05 02:36:13;;;;;;;0.42;0.42;;;16.80;99.90;;;;;;1945052;74;21065;-78
2021/06/05 02:38:39;;;;;;;1.05;0.75;;;16.80;99.90;;;;;;1944995;74;21486;-78
2021/06/05 02:41:07;;;;;;;0.62;0.50;;;16.80;99.90;;;;;;1944803;74;21477;-79
2021/06/05 02:43:33;;;;;;;1.07;0.53;;;16.80;99.90;;;;;;1944822;74;21073;-79
2021/06/05 02:45:59;;;;;;;1.10;0.60;;;16.80;99.90;;;;;;1944990;74;21566;-78
2021/06/05 02:48:25;;;;;;;1.15;0.70;;;16.60;99.90;;;;;;1944760;74;21493;-78
2021/06/05 02:50:51;;;;;;;1.47;0.80;;;16.70;99.90;;;;;;1944977;74;21062;-78
2021/06/05 02:53:18;;;;;;;0.72;0.62;;;16.70;99.90;;;;;;1944736;74;21061;-78
2021/06/05 02:55:44;;;;;;;0.68;0.68;;;16.60;99.90;;;;;;1944930;74;21128;-78
2021/06/05 02:58:10;;;;;;;0.72;0.57;;;16.50;99.90;;;;;;1944769;74;21201;-78
2021/06/05 03:00:36;;;;;;;4.75;1.00;;;16.60;99.90;;;;;;1944973;74;21127;-78
2021/06/05 03:03:04;;;;;;;0.80;0.80;;;16.50;99.90;;;;;;1944887;74;21025;-78
2021/06/05 03:05:30;;;;;;;2.17;0.70;;;16.40;99.90;;;;;;1944963;74;21144;-79
2021/06/05 03:07:56;;;;;;;2.15;0.85;;;16.40;99.90;;;;;;1945114;74;21030;-78
2021/06/05 03:10:22;;;;;;;1.55;0.65;;;16.40;99.90;;;;;;1944771;74;21526;-78
2021/06/05 03:12:48;;;;;;;2.67;1.00;;;16.40;99.90;;;;;;1944909;74;21582;-78
2021/06/05 03:15:14;;;;;;;3.65;0.82;;;16.30;99.90;;;;;;1944758;74;21478;-78
2021/06/05 03:17:40;;;;;;;5.72;0.75;;;16.30;99.90;;;;;;1945054;74;21435;-78
2021/06/05 03:20:07;;;;;;;4.25;1.00;;;16.20;99.90;;;;;;1944765;74;21105;-79
2021/06/05 03:22:33;;;;;;;1.82;0.98;;;16.10;99.90;;;;;;1945023;74;21132;-79
2021/06/05 03:24:59;;;;;;;2.27;1.10;;;16.10;99.90;;;;;;1945040;74;21108;-78
2021/06/05 03:27:25;;;;;;;1.45;0.80;;;16.20;99.90;;;;;;1945041;74;21057;-79
2021/06/05 03:29:51;;;;;;;0.70;0.70;;;16.20;99.90;;;;;;1945041;74;21023;-78
2021/06/05 03:32:17;;;;;;;0.80;0.80;;;16.30;99.90;;;;;;1944987;74;21178;-78
2021/06/05 03:34:44;;;;;;;0.78;0.78;;;16.30;99.90;;;;;;1945127;74;21127;-78
2021/06/05 03:37:11;;;;;;;1.20;0.70;;;16.40;99.90;;;;;;1944926;74;21065;-78
2021/06/05 03:39:37;;;;;;;1.37;0.85;;;16.40;99.90;;;;;;1944851;74;21182;-78
2021/06/05 03:42:03;;;;;;;1.57;0.90;;;16.40;99.90;;;;;;1944842;74;21127;-78
2021/06/05 03:44:29;;;;;;;7.87;0.93;;;16.50;99.90;;;;;;1944910;74;21058;-78
2021/06/05 03:46:55;;;;;;;1.22;0.85;;;16.50;99.90;;;;;;1944748;74;21058;-78
2021/06/05 03:49:21;;;;;;;3.12;1.20;;;16.60;99.90;;;;;;1944953;74;21069;-78
2021/06/05 03:51:47;;;;;;;0.88;0.80;;;16.60;99.90;;;;;;1945020;74;21023;-78
2021/06/05 03:54:14;;;;;;;2.20;1.00;;;16.50;99.90;;;;;;1944710;74;21054;-78
2021/06/05 03:56:40;;;;;;;2.67;1.07;;;16.50;99.90;;;;;;1944921;74;21139;-78
2021/06/05 03:59:08;;;;;;;1.98;0.88;;;16.60;99.90;;;;;;1944733;74;21069;-78
2021/06/05 04:01:34;;;;;;;1.90;1.00;;;16.70;99.90;;;;;;1944855;73;21057;-78
2021/06/05 04:04:00;;;;;;;5.15;1.20;;;16.70;99.90;;;;;;1945037;74;21062;-78
2021/06/05 04:06:26;;;;;;;1.27;1.17;;;16.70;99.90;;;;;;1945031;74;21131;-78
2021/06/05 04:08:52;;;;;;;4.42;1.00;;;16.70;99.90;;;;;;1945112;74;21058;-78
2021/06/05 04:11:18;;;;;;;1.15;1.00;;;16.60;99.90;;;;;;1945124;74;21031;-79
2021/06/05 04:13:46;;;;;;;1.12;0.98;;;16.50;99.90;;;;;;1944801;74;21069;-78
2021/06/05 04:16:12;;;;;;;1.80;1.00;;;16.50;99.90;;;;;;1945013;74;21069;-78
2021/06/05 04:18:38;;;;;;;1.37;0.90;;;16.50;99.90;;;;;;1944956;74;21065;-78
2021/06/05 04:21:04;;;;;;;1.52;1.17;;;16.50;99.90;;;;;;1944965;74;21026;-78
2021/06/05 04:23:30;;;;;;;1.67;0.85;;;16.50;99.90;;;;;;1944943;74;21058;-79
2021/06/05 04:25:56;;;;;;;1.30;1.15;;;16.60;99.90;;;;;;1947007;73;21119;-78
2021/06/05 04:28:22;;;;;;;11.45;1.05;;;16.70;99.90;;;;;;1948419;71;21042;-78
2021/06/05 04:30:48;;;;;;;1.40;1.27;;;16.90;99.90;;;;;;1945380;71;21026;-78
2021/06/05 04:33:15;;;;;;;1.98;1.10;;;16.90;99.90;;;;;;1943449;73;21078;-78
2021/06/05 04:35:41;;;;;;;5.50;1.45;;;16.80;99.90;;;;;;1946031;73;21061;-79
2021/06/05 04:38:07;;;;;;;1.55;1.00;;;16.80;99.90;;;;;;1944960;74;21061;-79
2021/06/05 04:40:33;;;;;;;7.62;1.02;;;16.80;99.90;;;;;;1945064;74;21442;-79
2021/06/05 04:42:59;;;;;;;6.10;1.45;;;16.90;99.90;;;;;;1944926;74;21399;-78
2021/06/05 04:45:25;;;;;;;2.12;1.17;;;16.90;99.90;;;;;;1945163;74;21481;-78
2021/06/05 04:47:51;;;;;;;4.37;1.10;;;17.10;99.90;;;;;;1946274;73;21481;-78
2021/06/05 04:50:18;;;;;;;1.10;1.00;;;17.10;99.90;;;;;;1943257;73;21539;-78
2021/06/05 04:52:44;;;;;;;3.20;1.20;;;17.20;99.90;;;;;;1938101;73;21542;-79
2021/06/05 04:55:10;;;;;;;4.00;1.45;;;17.30;99.90;;;;;;1946546;73;21488;-78
2021/06/05 04:57:36;;;;;;;1.62;0.75;;;17.30;99.90;;;;;;1949659;73;21124;-75
2021/06/05 05:00:02;;;;;;;0.93;0.90;;;17.30;99.90;;;;;;1944909;74;21069;-76
2021/06/05 05:02:28;;;;;;;1.80;0.98;;;17.30;99.90;;;;;;1945032;74;21074;-75
2021/06/05 05:04:54;;;;;;;0.85;0.72;;;17.20;99.90;;;;;;1944918;74;21127;-75
2021/06/05 05:07:21;;;;;;;2.55;1.20;;;17.30;99.90;;;;;;1944914;74;21505;-75
2021/06/05 05:09:47;;;;;;;2.10;1.15;;;17.50;99.90;;;;;;1944825;74;21422;-75
2021/06/05 05:12:13;;;;;;;1.47;0.90;;;17.40;99.90;;;;;;1945006;74;21559;-75
2021/06/05 05:14:39;;;;;;;2.47;1.52;;;17.40;99.90;;;;;;1944920;74;21466;-74
2021/06/05 05:17:05;;;;;;;6.28;0.93;;;17.60;99.90;;;;;;1945017;74;21494;-74
2021/06/05 05:19:31;;;;;;;1.37;1.00;;;17.60;99.90;;;;;;1944869;74;21563;-74
2021/06/05 05:21:57;;;;;;;1.57;0.98;;;17.70;99.90;;;;;;1944916;74;21481;-74
2021/06/05 05:24:23;;;;;;;2.65;0.98;;;17.70;99.90;;;;;;1944785;74;21025;-75
2021/06/05 05:26:49;;;;;;;1.37;1.15;;;17.80;99.90;;;;;;1945021;74;21049;-75
2021/06/05 05:29:16;;;;;;;1.45;1.02;;;17.70;99.90;;;;;;1944793;74;21062;-74
2021/06/05 05:31:42;;;;;;;6.10;1.02;;;17.80;99.90;;;;;;1945043;74;21049;-75
2021/06/05 05:34:08;;;;;;;1.95;1.12;;;17.90;99.90;;;;;;1944765;74;21094;-75
2021/06/05 05:36:34;;;;;;;1.92;1.35;;;17.80;99.90;;;;;;1945022;74;21050;-74
2021/06/05 05:39:00;;;;;;;12.93;1.65;;;17.90;99.90;;;;;;1944835;74;21057;-74
2021/06/05 05:41:26;;;;;;;3.25;1.37;;;18.00;99.90;;;;;;1945000;74;21124;-73
2021/06/05 05:43:52;;;;;;;1.27;1.17;;;18.00;99.90;;;;;;1944778;74;21026;-74
2021/06/05 05:46:18;;;;;;;4.53;1.05;;;18.20;99.90;;;;;;1944999;74;21093;-74
2021/06/05 05:48:45;;;;;;;3.72;1.05;;;18.20;99.90;;;;;;1945134;74;21053;-72
2021/06/05 05:51:11;;;;;;;3.83;1.52;;;18.20;99.90;;;;;;1945137;74;21054;-73
2021/06/05 05:53:39;;;;;;;5.33;1.40;;;18.20;99.90;;;;;;1945082;74;21034;-73
2021/06/05 05:56:05;;;;;;;3.37;1.15;;;18.20;99.90;;;;;;1945043;72;21053;-72
2021/06/05 05:58:31;;;;;;;1.40;1.07;;;18.30;99.90;;;;;;1944802;74;21062;-73
2021/06/05 06:00:57;;;;;;;2.67;1.12;;;18.40;99.90;;;;;;1945001;74;21055;-72
2021/06/05 06:03:23;;;;;;;1.25;1.15;;;18.60;99.90;;;;;;1944805;74;21023;-72
2021/06/05 06:05:49;;;;;;;1.12;1.02;;;18.40;99.90;;;;;;1945007;74;21057;-73
2021/06/05 06:08:15;;;;;;;1.02;0.93;;;18.60;99.90;;;;;;1944798;74;21058;-75
2021/06/05 06:10:41;;;;;;;1.10;1.02;;;18.80;99.90;;;;;;1944796;74;21046;-74
2021/06/05 06:13:07;;;;;;;1.10;0.88;;;19.10;99.90;;;;;;1944790;74;21030;-72
2021/06/05 06:15:34;;;;;;;0.88;0.80;;;19.10;99.90;;;;;;1944799;74;21088;-74
2021/06/05 06:18:00;;;;;;;2.25;0.95;;;19.20;99.90;;;;;;1944986;74;21062;-74
2021/06/05 06:20:26;;;;;;;2.10;1.00;;;19.10;99.90;;;;;;1944868;74;21120;-74
2021/06/05 06:22:56;;;;;;;3.02;1.30;;;19.10;99.90;;;;;;1944811;74;21119;-75
2021/06/05 06:25:27;;;;;;;2.35;0.75;;;19.20;99.90;;;;;;1944858;74;21061;-74
2021/06/05 06:27:53;;;;;;;0.85;0.85;;;19.40;99.90;;;;;;1944895;73;21430;-74
2021/06/05 06:30:19;;;;;;;3.90;0.80;;;19.90;99.90;;;;;;1944740;74;21489;-70
2021/06/05 06:32:52;;;;;;;2.42;0.75;;;20.10;99.90;;;;;;1944757;74;21509;-71
2021/06/05 06:35:13;;;;;;;2.02;0.90;;;19.80;99.90;;;;;;1946135;72;21063;-71
2021/06/05 06:37:39;;;;;;;3.92;1.15;;;20.00;99.90;;;;;;1944741;74;21061;-71
2021/06/05 06:40:05;;;;;;;1.30;0.70;;;20.00;99.90;;;;;;1944848;74;21135;-71
2021/06/05 06:42:31;;;;;;;5.00;0.60;;;20.60;99.90;;;;;;1944733;74;21077;-72
2021/06/05 06:44:57;;;;;;;1.85;0.70;;;20.70;99.90;;;;;;1944717;74;21131;-72
2021/06/05 06:47:23;;;;;;;3.17;0.70;;;20.50;99.90;;;;;;1944760;74;21555;-73
2021/06/05 06:49:50;;;;;;;1.07;0.42;;;20.30;99.90;;;;;;1944753;74;21502;-70
2021/06/05 06:52:16;;;;;;;0.80;0.50;;;20.40;99.90;;;;;;1944943;74;21058;-70
2021/06/05 06:54:42;;;;;;;3.35;0.40;;;21.00;99.90;;;;;;1944793;74;21070;-71
2021/06/05 06:57:08;;;;;;;2.05;0.47;;;21.60;99.90;;;;;;1944953;74;21158;-71
2021/06/05 06:59:34;;;;;;;1.75;0.50;;;22.10;99.90;;;;;;1944725;74;21058;-72
2021/06/05 07:02:00;;;;;;;0.88;0.30;;;22.30;99.90;;;;;;1944702;74;21054;-72
2021/06/05 07:04:26;;;;;;;1.07;0.50;;;23.00;99.90;;;;;;1944825;74;21053;-72
2021/06/05 07:06:52;;;;;;;1.67;0.37;;;23.10;99.90;;;;;;1944832;74;21057;-72
2021/06/05 07:09:19;;;;;;;0.60;0.40;;;23.80;99.90;;;;;;1944756;74;21116;-73
2021/06/05 07:11:45;;;;;;;6.55;0.62;;;23.50;99.90;;;;;;1944720;74;21131;-73
2021/06/05 07:14:11;;;;;;;1.47;0.35;;;22.80;99.90;;;;;;1944656;74;21042;-73
2021/06/05 07:16:37;;;;;;;0.80;0.50;;;22.40;99.90;;;;;;1944717;74;21057;-73
2021/06/05 07:19:03;;;;;;;0.80;0.50;;;22.30;99.90;;;;;;1944711;74;21061;-73
2021/06/05 07:21:30;;;;;;;1.27;0.60;;;22.50;99.90;;;;;;1944745;74;21073;-73
2021/06/05 07:23:56;;;;;;;0.40;0.40;;;22.40;99.90;;;;;;1944789;74;21061;-74
2021/06/05 07:26:22;;;;;;;1.70;0.37;;;22.90;99.90;;;;;;1944772;74;21027;-75
2021/06/05 07:28:48;;;;;;;4.53;0.45;;;22.10;99.90;;;;;;1941472;73;21116;-74
2021/06/05 07:31:14;;;;;;;2.50;0.42;;;21.90;99.90;;;;;;1938550;73;21143;-72
2021/06/05 07:33:46;;;;;;;3.08;0.90;;;21.80;99.90;;;;;;1944645;74;21135;-74
2021/06/05 07:36:08;;;;;;;1.55;0.60;;;21.80;99.90;;;;;;1945010;72;21129;-75
2021/06/05 07:38:34;;;;;;;1.92;0.40;;;22.00;99.90;;;;;;1944755;74;21123;-73
2021/06/05 07:41:01;;;;;;;0.45;0.25;;;22.10;99.90;;;;;;1944779;73;21062;-74
2021/06/05 07:43:27;;;;;;;7.78;0.60;;;22.50;99.90;;;;;;1946081;73;21058;-73
2021/06/05 07:45:54;;;;;;;1.35;0.40;;;22.20;99.90;;;;;;1941856;73;21132;-74
2021/06/05 07:48:20;;;;;;;0.42;0.40;;;21.90;99.90;;;;;;1935783;74;21035;-73
2021/06/05 07:50:47;;;;;;;0.47;0.40;;;21.80;99.90;;;;;;1946345;73;21127;-73
2021/06/05 07:53:13;;;;;;;0.88;0.42;;;22.00;99.90;;;;;;1944600;74;21151;-74
2021/06/05 07:55:39;;;;;;;3.17;0.55;;;22.60;99.90;;;;;;1944779;74;21105;-73
2021/06/05 07:58:06;;;;;;;3.25;0.60;;;22.60;99.90;;;;;;1944589;74;21034;-73
2021/06/05 08:00:32;;;;;;;4.55;0.68;;;22.50;99.90;;;;;;1944730;73;21147;-73
2021/06/05 08:02:58;;;;;;;1.65;0.60;;;22.00;99.90;;;;;;1944624;74;21120;-74
2021/06/05 08:05:24;;;;;;;0.93;0.40;;;22.40;99.90;;;;;;1944640;74;21049;-73
2021/06/05 08:07:50;;;;;;;1.75;0.50;;;22.70;99.90;;;;;;1944716;74;21124;-73
2021/06/05 08:10:16;;;;;;;2.00;0.70;;;22.70;99.90;;;;;;1944668;74;21027;-74
2021/06/05 08:12:42;;;;;;;1.17;0.40;;;22.80;99.90;;;;;;1944608;74;21065;-72
2021/06/05 08:15:09;;;;;;;0.90;0.50;;;22.90;99.90;;;;;;1944720;74;21097;-72
2021/06/05 08:17:35;;;;;;;3.22;0.70;;;22.80;99.90;;;;;;1944728;74;21054;-73
2021/06/05 08:20:01;;;;;;;0.42;0.40;;;22.50;99.90;;;;;;1946764;71;21093;-72
2021/06/05 08:22:27;;;;;;;4.05;0.47;;;22.80;99.90;;;;;;1947684;71;21035;-73
2021/06/05 08:24:53;;;;;;;2.50;0.42;;;22.50;99.90;;;;;;1944731;74;21049;-73
2021/06/05 08:27:19;;;;;;;3.42;0.42;;;22.20;99.90;;;;;;1944664;74;21065;-74
2021/06/05 08:29:45;;;;;;;1.75;0.60;;;21.70;99.90;;;;;;1944706;74;21022;-74
2021/06/05 08:32:11;;;;;;;0.72;0.40;;;21.50;99.90;;;;;;1944771;74;21053;-74
2021/06/05 08:34:37;;;;;;;0.75;0.40;;;21.20;99.90;;;;;;1944748;74;21139;-74
2021/06/05 08:37:04;;;;;;;3.52;0.53;;;21.00;99.90;;;;;;1944687;74;21057;-73
2021/06/05 08:39:30;;;;;;;2.60;0.75;;;21.00;99.90;;;;;;1944652;74;21031;-74
2021/06/05 08:41:58;;;;;;;1.45;0.53;;;21.00;99.90;;;;;;1944763;74;21069;-74
2021/06/05 08:44:24;;;;;;;1.05;0.50;;;21.10;99.90;;;;;;1944731;72;21075;-73
2021/06/05 08:46:50;;;;;;;0.40;0.40;;;21.10;99.90;;;;;;1944663;74;21127;-73
2021/06/05 08:49:16;;;;;;;1.30;0.70;;;21.30;99.90;;;;;;1944742;74;21026;-73
2021/06/05 08:51:42;;;;;;;1.17;0.62;;;21.40;99.90;;;;;;1944534;74;21065;-73
2021/06/05 08:54:08;;;;;;;2.27;0.72;;;21.50;99.90;;;;;;1944732;74;21422;-74
2021/06/05 08:56:34;;;;;;;1.85;0.47;;;21.40;99.90;;;;;;1944892;74;21026;-74
2021/06/05 08:59:00;;;;;;;3.30;0.57;;;21.80;99.90;;;;;;1944970;74;21027;-71
2021/06/05 09:01:27;;;;;;;1.10;0.40;;;21.80;99.90;;;;;;1944878;74;21061;-73
2021/06/05 09:03:53;;;;;;;2.25;0.98;;;21.70;99.90;;;;;;1944773;74;21139;-73
2021/06/05 09:06:19;;;;;;;1.65;0.65;;;21.90;99.90;;;;;;1944861;74;21116;-73
2021/06/05 09:08:45;;;;;;;8.10;0.70;;;21.70;99.90;;;;;;1944697;74;21049;-73
2021/06/05 09:11:11;;;;;;;0.65;0.40;;;21.80;99.90;;;;;;1944898;74;21062;-77
2021/06/05 09:13:37;;;;;;;4.85;0.72;;;21.90;99.90;;;;;;1944654;74;21132;-73
2021/06/05 09:16:03;;;;;;;2.65;0.47;;;22.00;99.90;;;;;;1944811;74;21061;-73
2021/06/05 09:18:29;;;;;;;1.27;0.37;;;22.10;99.90;;;;;;1944684;74;21135;-73
2021/06/05 09:20:56;;;;;;;0.78;0.50;;;21.90;99.90;;;;;;1944952;74;21054;-75
2021/06/05 09:23:22;;;;;;;1.00;0.35;;;22.20;99.90;;;;;;1944717;74;21049;-73
2021/06/05 09:25:48;;;;;;;0.53;0.30;;;22.30;99.90;;;;;;1944866;74;21058;-73
2021/06/05 09:28:14;;;;;;;1.50;0.70;;;22.50;99.90;;;;;;1944914;74;21057;-74
2021/06/05 09:30:42;;;;;;;1.42;0.50;;;22.50;99.90;;;;;;1944988;74;21062;-73
2021/06/05 09:33:09;;;;;;;2.90;0.62;;;22.60;99.90;;;;;;1944841;74;21053;-72
2021/06/05 09:35:37;;;;;;;4.50;0.55;;;22.50;99.90;;;;;;1944789;74;21069;-72
2021/06/05 09:38:03;;;;;;;2.00;0.65;;;22.70;99.90;;;;;;1944784;72;21115;-72
2021/06/05 09:40:31;;;;;;;3.83;1.47;;;22.70;99.90;;;;;;1944646;74;21175;-72
2021/06/05 09:42:57;;;;;;;1.82;0.40;;;22.80;99.90;;;;;;1944990;72;21438;-72
2021/06/05 09:45:23;;;;;;;0.45;0.40;;;22.70;99.90;;;;;;1944625;74;21571;-72
2021/06/05 09:47:49;;;;;;;3.72;0.60;;;22.60;99.90;;;;;;1944844;74;21113;-72
2021/06/05 09:50:15;;;;;;;1.05;0.55;;;22.60;99.90;;;;;;1944638;74;21127;-72
2021/06/05 09:52:41;;;;;;;9.25;0.65;;;22.60;99.90;;;;;;1944810;74;21120;-72
2021/06/05 09:55:07;;;;;;;1.32;0.62;;;22.70;99.90;;;;;;1944701;74;21053;-72
2021/06/05 09:57:33;;;;;;;3.50;0.53;;;22.80;99.90;;;;;;1944900;74;21065;-71
2021/06/05 09:59:59;;;;;;;2.92;0.50;;;22.70;99.90;;;;;;1944678;74;21112;-73
2021/06/05 10:02:26;;;;;;;1.42;0.50;;;22.60;99.90;;;;;;1944822;74;21026;-73
2021/06/05 10:04:52;;;;;;;0.98;0.40;;;22.30;99.90;;;;;;1944633;74;21102;-73
2021/06/05 10:07:18;;;;;;;0.62;0.40;;;22.50;99.90;;;;;;1944831;74;21062;-73
2021/06/05 10:09:47;;;;;;;0.53;0.47;;;22.60;99.90;;;;;;1944667;74;21119;-73
2021/06/05 10:12:13;;;;;;;2.00;0.40;;;22.70;99.90;;;;;;1944768;74;21027;-73
2021/06/05 10:14:39;;;;;;;1.02;0.75;;;22.80;99.90;;;;;;1944714;74;21490;-73
2021/06/05 10:17:05;;;;;;;0.33;0.33;;;22.70;99.90;;;;;;1944641;74;21547;-73
2021/06/05 10:19:32;;;;;;;1.98;0.70;;;22.60;99.90;;;;;;1944872;74;21473;-74
2021/06/05 10:21:58;;;;;;;0.53;0.53;;;22.40;99.90;;;;;;1944635;74;21485;-72
2021/06/05 10:24:24;;;;;;;3.35;0.40;;;22.40;99.90;;;;;;1944018;73;21461;-71
2021/06/05 10:26:50;;;;;;;1.45;0.60;;;22.50;99.90;;;;;;1954516;73;21135;-71
2021/06/05 10:29:16;;;;;;;0.45;0.40;;;22.50;99.90;;;;;;1945170;73;21119;-71
2021/06/05 10:31:42;;;;;;;0.37;0.30;;;22.40;99.90;;;;;;1944740;74;21065;-71
2021/06/05 10:34:08;;;;;;;1.70;0.50;;;22.50;99.90;;;;;;1944698;74;21043;-71
2021/06/05 10:36:34;;;;;;;0.47;0.40;;;22.80;99.90;;;;;;1944747;74;21065;-71
2021/06/05 10:39:01;;;;;;;2.17;0.33;;;22.80;99.90;;;;;;1944765;74;21066;-71
2021/06/05 10:41:27;;;;;;;0.93;0.40;;;22.70;99.90;;;;;;1946907;73;21065;-71
2021/06/05 10:43:53;;;;;;;3.22;0.72;;;22.70;99.90;;;;;;1950109;73;21031;-71
2021/06/05 10:46:19;;;;;;;1.15;0.50;;;22.70;99.90;;;;;;1948355;73;21112;-67
2021/06/05 10:48:47;;;;;;;2.05;0.60;;;22.30;99.90;;;;;;1944260;73;21066;-71
2021/06/05 10:51:13;;;;;;;0.68;0.47;;;22.40;99.90;;;;;;1957809;73;21061;-70
2021/06/05 10:53:39;;;;;;;1.55;0.60;;;22.60;99.90;;;;;;1956251;73;21085;-68
2021/06/05 10:56:05;;;;;;;2.02;0.60;;;22.50;99.90;;;;;;1957929;73;21053;-71
2021/06/05 10:58:31;;;;;;;6.00;0.70;;;22.60;99.90;;;;;;1955874;73;21065;-69
2021/06/05 11:00:57;;;;;;;0.62;0.62;;;22.90;99.90;;;;;;1958047;73;21126;-69
2021/06/05 11:03:23;;;;;;;2.05;0.57;;;22.90;99.90;;;;;;1957935;73;21034;-73
2021/06/05 11:05:49;;;;;;;2.42;0.78;;;22.60;99.90;;;;;;1957887;73;21073;-73
2021/06/05 11:08:20;;;;;;;0.45;0.45;;;22.60;99.90;;;;;;1957902;73;21069;-72
2021/06/05 11:10:43;;;;;;;3.05;0.57;;;22.70;99.90;;;;;;1957911;72;21061;-73
2021/06/05 11:13:10;;;;;;;2.60;0.45;;;22.60;99.90;;;;;;1958005;73;21117;-72
2021/06/05 11:15:36;;;;;;;1.75;0.40;;;22.70;99.90;;;;;;1957981;73;21555;-73
2021/06/05 11:20:47;;;;;;;1.45;0.42;;;22.70;99.90;;;;;;1906390;75;21175;-73
2021/06/05 11:23:13;;;;;;;1.75;0.50;;;22.90;99.90;;;;;;1914785;75;21070;-74
2021/06/05 11:25:44;;;;;;;0.82;0.42;;;23.10;99.90;;;;;;1990690;71;21054;-72
2021/06/05 11:28:07;;;;;;;2.70;1.12;;;23.00;99.90;;;;;;1990311;71;21572;-73
2021/06/05 11:30:33;;;;;;;0.40;0.40;;;23.30;99.90;;;;;;1990222;72;21532;-73
2021/06/05 11:32:59;;;;;;;0.47;0.47;;;23.50;99.90;;;;;;1990395;72;21549;-74
2021/06/05 11:35:26;;;;;;;0.40;0.40;;;23.50;99.90;;;;;;1990192;72;21432;-75
2021/06/05 11:37:52;;;;;;;0.95;0.47;;;23.60;99.90;;;;;;1990377;72;21559;-74
2021/06/05 11:40:18;;;;;;;0.57;0.40;;;23.60;99.90;;;;;;1990214;72;21537;-75
2021/06/05 11:42:44;;;;;;;0.72;0.50;;;24.00;99.90;;;;;;1990568;72;21540;-73
2021/06/05 11:45:10;;;;;;;0.25;0.25;;;24.20;99.90;;;;;;1990320;72;21223;-74
2021/06/05 11:47:36;;;;;;;2.95;0.78;;;24.00;99.90;;;;;;1990260;72;21038;-74
2021/06/05 11:50:02;;;;;;;0.80;0.40;;;23.70;99.90;;;;;;1990317;72;21089;-75
2021/06/05 11:52:29;;;;;;;0.40;0.37;;;23.80;99.90;;;;;;1990295;72;21138;-75
2021/06/05 11:54:55;;;;;;;0.53;0.50;;;24.00;99.90;;;;;;1990322;72;21533;-74
2021/06/05 11:57:22;;;;;;;0.65;0.33;;;23.60;99.90;;;;;;1990523;72;21515;-75
2021/06/05 11:59:48;;;;;;;1.25;0.40;;;23.50;99.90;;;;;;1990340;71;21071;-74
2021/06/05 12:02:15;;;;;;;0.75;0.40;;;23.50;99.90;;;;;;1990249;72;21124;-74
2021/06/05 12:04:41;;;;;;;2.22;0.80;;;23.50;99.90;;;;;;1990291;72;21050;-75
2021/06/05 12:07:07;;;;;;;3.50;0.60;;;23.70;99.90;;;;;;1990372;71;21109;-76
2021/06/05 12:09:33;;;;;;;0.50;0.30;;;23.40;99.90;;;;;;1990209;72;21058;-74
2021/06/05 12:11:59;;;;;;;1.07;0.40;;;23.10;99.90;;;;;;1990251;72;21075;-75
2021/06/05 12:14:26;;;;;;;1.05;0.50;;;23.10;99.90;;;;;;1989964;72;21435;-76
2021/06/05 12:16:52;;;;;;;2.67;0.78;;;22.90;99.90;;;;;;1989920;72;21072;-75
2021/06/05 12:19:18;;;;;;;2.80;0.55;;;22.60;99.90;;;;;;1990025;72;21054;-74
2021/06/05 12:21:45;;;;;;;0.72;0.70;;;22.60;99.90;;;;;;1983220;71;21074;-75
2021/06/05 12:24:11;;;;;;;0.40;0.40;;;22.70;99.90;;;;;;1988182;72;21066;-75
2021/06/05 12:26:37;;;;;;;2.40;0.45;;;22.70;99.90;;;;;;1982087;72;21082;-77
2021/06/05 12:29:03;;;;;;;1.15;0.70;;;22.40;99.90;;;;;;1988989;72;21054;-77
2021/06/05 12:31:29;;;;;;;1.20;0.42;;;22.40;99.90;;;;;;1987438;72;21071;-76
2021/06/05 12:33:55;;;;;;;1.15;0.40;;;22.50;99.90;;;;;;1989959;72;21217;-76
2021/06/05 12:36:21;;;;;;;1.95;0.85;;;23.00;99.90;;;;;;1992193;72;21141;-77
2021/06/05 12:38:50;;;;;;;0.30;0.30;;;23.40;99.90;;;;;;1993659;72;21172;-76
2021/06/05 12:41:15;;;;;;;4.60;0.40;;;24.50;99.90;;;;;;1993576;71;21052;-76
2021/06/05 12:43:41;;;;;;;3.25;0.42;;;25.40;99.90;;;;;;1996081;71;21051;-77